sensor_id;sensor_type;location;lat;lon;timestamp;temperature;humidity
14737;DHT22;7459;53.590;10.062;2023-11-22T00:00:57;3.80;99.90
14737;DHT22;7459;53.590;10.062;2023-11-22T00:03:23;3.80;99.90
14737;DHT22;7459;53.590;10.062;2023-11-22T00:05:51;3.70;99.90
14737;DHT22;7459;53.590;10.062;2023-11-22T00:08:17;3.60;99.90
14737;DHT22;7459;53.590;10.062;2023-11-22T00:10:43;3.60;99.90
14737;DHT22;7459;53.590;10.062;2023-11-22T00:13:10;3.60;99.90
14737;DHT22;7459;53.590;10.062;2023-11-22T00:15:37;3.50;99.90
14737;DHT22;7459;53.590;10.062;2023-11-22T00:18:02;3.50;99.90
14737;DHT22;7459;53.590;10.062;2023-11-22T00:20:29;3.40;99.90
14737;DHT22;7459;53.590;10.062;2023-11-22T00:22:56;3.60;99.90
14737;DHT22;7459;53.590;10.062;2023-11-22T00:25:22;3.60;99.90
14737;DHT22;7459;53.590;10.062;2023-11-22T00:27:48;3.60;99.90
14737;DHT22;7459;53.590;10.062;2023-11-22T00:30:14;3.50;99.90
14737;DHT22;7459;53.590;10.062;2023-11-22T00:32:40;3.50;99.90
14737;DHT22;7459;53.590;10.062;2023-11-22T00:35:06;3.60;99.90
14737;DHT22;7459;53.590;10.062;2023-11-22T00:37:33;3.50;99.90
14737;DHT22;7459;53.590;10.062;2023-11-22T00:40:03;3.50;99.90
14737;DHT22;7459;53.590;10.062;2023-11-22T00:42:39;3.40;99.90
14737;DHT22;7459;53.590;10.062;2023-11-22T00:45:07;3.40;99.90
14737;DHT22;7459;53.590;10.062;2023-11-22T00:47:34;3.50;99.90
14737;DHT22;7459;53.590;10.062;2023-11-22T00:49:59;3.30;99.90
14737;DHT22;7459;53.590;10.062;2023-11-22T00:52:26;3.30;99.90
14737;DHT22;7459;53.590;10.062;2023-11-22T00:54:52;3.30;99.90
14737;DHT22;7459;53.590;10.062;2023-11-22T00:57:18;3.20;99.90
14737;DHT22;7459;53.590;10.062;2023-11-22T00:59:44;3.30;99.90
14737;DHT22;7459;53.590;10.062;2023-11-22T01:02:09;3.20;99.90
14737;DHT22;7459;53.590;10.062;2023-11-22T01:04:35;3.10;99.90
14737;DHT22;7459;53.590;10.062;2023-11-22T01:07:02;3.20;99.90
14737;DHT22;7459;53.590;10.062;2023-11-22T01:09:34;3.10;99.90
14737;DHT22;7459;53.590;10.062;2023-11-22T01:12:00;3.10;99.90
14737;DHT22;7459;53.590;10.062;2023-11-22T01:14:27;3.10;99.90
14737;DHT22;7459;53.590;10.062;2023-11-22T01:16:53;3.00;99.90
14737;DHT22;7459;53.590;10.062;2023-11-22T01:19:22;3.00;99.90
14737;DHT22;7459;53.590;10.062;2023-11-22T01:21:48;3.10;99.90
14737;DHT22;7459;53.590;10.062;2023-11-22T01:24:14;3.10;99.90
14737;DHT22;7459;53.590;10.062;2023-11-22T01:26:39;3.10;99.90
14737;DHT22;7459;53.590;10.062;2023-11-22T01:29:05;3.10;99.90
14737;DHT22;7459;53.590;10.062;2023-11-22T01:31:31;3.10;99.90
14737;DHT22;7459;53.590;10.062;2023-11-22T01:33:58;3.10;99.90
14737;DHT22;7459;53.590;10.062;2023-11-22T01:36:24;3.10;99.90
14737;DHT22;7459;53.590;10.062;2023-11-22T01:38:51;3.00;99.90
14737;DHT22;7459;53.590;10.062;2023-11-22T01:41:17;3.00;99.90
14737;DHT22;7459;53.590;10.062;2023-11-22T01:43:43;3.00;99.90
14737;DHT22;7459;53.590;10.062;2023-11-22T01:46:10;3.00;99.90
14737;DHT22;7459;53.590;10.062;2023-11-22T01:48:49;3.00;99.90
14737;DHT22;7459;53.590;10.062;2023-11-22T01:51:15;3.00;99.90
14737;DHT22;7459;53.590;10.062;2023-11-22T01:53:42;3.00;99.90
14737;DHT22;7459;53.590;10.062;2023-11-22T01:56:07;3.00;99.90
14737;DHT22;7459;53.590;10.062;2023-11-22T01:58:35;3.00;99.90
14737;DHT22;7459;53.590;10.062;2023-11-22T02:01:01;3.00;99.90
14737;DHT22;7459;53.590;10.062;2023-11-22T02:03:27;3.00;99.90
14737;DHT22;7459;53.590;10.062;2023-11-22T02:05:54;2.90;99.90
14737;DHT22;7459;53.590;10.062;2023-11-22T02:08:20;2.80;99.90
14737;DHT22;7459;53.590;10.062;2023-11-22T02:10:45;2.80;99.90
14737;DHT22;7459;53.590;10.062;2023-11-22T02:13:14;2.80;99.90
14737;DHT22;7459;53.590;10.062;2023-11-22T02:15:40;2.80;99.90
14737;DHT22;7459;53.590;10.062;2023-11-22T02:18:06;2.80;99.90
14737;DHT22;7459;53.590;10.062;2023-11-22T02:20:32;2.80;99.90
14737;DHT22;7459;53.590;10.062;2023-11-22T02:23:03;2.70;99.90
14737;DHT22;7459;53.590;10.062;2023-11-22T02:25:34;2.70;99.90
14737;DHT22;7459;53.590;10.062;2023-11-22T02:27:59;2.70;99.90
14737;DHT22;7459;53.590;10.062;2023-11-22T02:30:25;2.70;99.90
14737;DHT22;7459;53.590;10.062;2023-11-22T02:32:51;2.70;99.90
14737;DHT22;7459;53.590;10.062;2023-11-22T02:35:17;2.60;99.90
14737;DHT22;7459;53.590;10.062;2023-11-22T02:37:43;2.60;99.90
14737;DHT22;7459;53.590;10.062;2023-11-22T02:40:21;2.60;99.90
14737;DHT22;7459;53.590;10.062;2023-11-22T02:42:48;2.60;99.90
14737;DHT22;7459;53.590;10.062;2023-11-22T02:45:16;2.60;99.90
14737;DHT22;7459;53.590;10.062;2023-11-22T02:47:43;2.60;99.90
14737;DHT22;7459;53.590;10.062;2023-11-22T02:50:12;2.60;99.90
14737;DHT22;7459;53.590;10.062;2023-11-22T02:52:39;2.60;99.90
14737;DHT22;7459;53.590;10.062;2023-11-22T02:55:05;2.50;99.90
14737;DHT22;7459;53.590;10.062;2023-11-22T02:57:31;2.50;99.90
14737;DHT22;7459;53.590;10.062;2023-11-22T02:59:57;2.50;99.90
14737;DHT22;7459;53.590;10.062;2023-11-22T03:05:37;2.40;99.90
14737;DHT22;7459;53.590;10.062;2023-11-22T03:08:04;2.50;99.90
14737;DHT22;7459;53.590;10.062;2023-11-22T03:10:32;2.50;99.90
14737;DHT22;7459;53.590;10.062;2023-11-22T03:12:58;2.50;99.90
14737;DHT22;7459;53.590;10.062;2023-11-22T03:15:24;2.50;99.90
14737;DHT22;7459;53.590;10.062;2023-11-22T03:17:50;2.50;99.90
14737;DHT22;7459;53.590;10.062;2023-11-22T03:20:15;2.50;99.90
14737;DHT22;7459;53.590;10.062;2023-11-22T03:22:42;2.50;99.90
14737;DHT22;7459;53.590;10.062;2023-11-22T03:25:11;2.40;99.90
14737;DHT22;7459;53.590;10.062;2023-11-22T03:27:37;2.40;99.90
14737;DHT22;7459;53.590;10.062;2023-11-22T03:30:04;2.30;99.90
14737;DHT22;7459;53.590;10.062;2023-11-22T03:32:30;2.30;99.90
14737;DHT22;7459;53.590;10.062;2023-11-22T03:34:56;2.40;99.90
14737;DHT22;7459;53.590;10.062;2023-11-22T03:37:23;2.30;99.90
14737;DHT22;7459;53.590;10.062;2023-11-22T03:39:51;2.30;99.90
14737;DHT22;7459;53.590;10.062;2023-11-22T03:42:18;2.30;99.90
14737;DHT22;7459;53.590;10.062;2023-11-22T03:44:44;2.40;99.90
14737;DHT22;7459;53.590;10.062;2023-11-22T03:47:10;2.40;99.90
14737;DHT22;7459;53.590;10.062;2023-11-22T03:49:39;2.40;99.90
14737;DHT22;7459;53.590;10.062;2023-11-22T03:52:05;2.40;99.90
14737;DHT22;7459;53.590;10.062;2023-11-22T03:54:31;2.30;99.90
14737;DHT22;7459;53.590;10.062;2023-11-22T03:56:58;2.30;99.90
14737;DHT22;7459;53.590;10.062;2023-11-22T03:59:24;2.30;99.90
14737;DHT22;7459;53.590;10.062;2023-11-22T04:01:50;2.30;99.90
14737;DHT22;7459;53.590;10.062;2023-11-22T04:04:16;2.30;99.90
14737;DHT22;7459;53.590;10.062;2023-11-22T04:06:42;2.30;99.90
14737;DHT22;7459;53.590;10.062;2023-11-22T04:09:07;2.30;99.90
14737;DHT22;7459;53.590;10.062;2023-11-22T04:11:39;2.30;99.90
14737;DHT22;7459;53.590;10.062;2023-11-22T04:14:05;2.30;99.90
14737;DHT22;7459;53.590;10.062;2023-11-22T04:16:31;2.30;99.90
14737;DHT22;7459;53.590;10.062;2023-11-22T04:18:57;2.20;99.90
14737;DHT22;7459;53.590;10.062;2023-11-22T04:21:23;2.30;99.90
14737;DHT22;7459;53.590;10.062;2023-11-22T04:23:49;2.30;99.90
14737;DHT22;7459;53.590;10.062;2023-11-22T04:26:15;2.30;99.90
14737;DHT22;7459;53.590;10.062;2023-11-22T04:28:41;2.30;99.90
14737;DHT22;7459;53.590;10.062;2023-11-22T04:31:07;2.30;99.90
14737;DHT22;7459;53.590;10.062;2023-11-22T04:33:34;2.30;99.90
14737;DHT22;7459;53.590;10.062;2023-11-22T04:36:00;2.30;99.90
14737;DHT22;7459;53.590;10.062;2023-11-22T04:38:26;2.20;99.90
14737;DHT22;7459;53.590;10.062;2023-11-22T04:40:52;2.20;99.90
14737;DHT22;7459;53.590;10.062;2023-11-22T04:43:17;2.20;99.90
14737;DHT22;7459;53.590;10.062;2023-11-22T04:45:43;2.20;99.90
14737;DHT22;7459;53.590;10.062;2023-11-22T04:48:09;2.20;99.90
14737;DHT22;7459;53.590;10.062;2023-11-22T04:50:35;2.20;99.90
14737;DHT22;7459;53.590;10.062;2023-11-22T04:53:01;2.20;99.90
14737;DHT22;7459;53.590;10.062;2023-11-22T04:55:27;2.20;99.90
14737;DHT22;7459;53.590;10.062;2023-11-22T04:57:53;2.20;99.90
14737;DHT22;7459;53.590;10.062;2023-11-22T05:00:21;2.20;99.90
14737;DHT22;7459;53.590;10.062;2023-11-22T05:02:48;2.20;99.90
14737;DHT22;7459;53.590;10.062;2023-11-22T05:05:14;2.10;99.90
14737;DHT22;7459;53.590;10.062;2023-11-22T05:07:40;2.10;99.90
14737;DHT22;7459;53.590;10.062;2023-11-22T05:10:06;2.00;99.90
14737;DHT22;7459;53.590;10.062;2023-11-22T05:12:35;2.00;99.90
14737;DHT22;7459;53.590;10.062;2023-11-22T05:15:02;2.00;99.90
14737;DHT22;7459;53.590;10.062;2023-11-22T05:17:28;1.80;99.90
14737;DHT22;7459;53.590;10.062;2023-11-22T05:19:54;1.80;99.90
14737;DHT22;7459;53.590;10.062;2023-11-22T05:22:20;1.90;99.90
14737;DHT22;7459;53.590;10.062;2023-11-22T05:24:45;1.80;99.90
14737;DHT22;7459;53.590;10.062;2023-11-22T05:27:11;1.80;99.90
14737;DHT22;7459;53.590;10.062;2023-11-22T05:29:37;1.80;99.90
14737;DHT22;7459;53.590;10.062;2023-11-22T05:32:03;1.80;99.90
14737;DHT22;7459;53.590;10.062;2023-11-22T05:34:30;1.80;99.90
14737;DHT22;7459;53.590;10.062;2023-11-22T05:36:55;1.80;99.90
14737;DHT22;7459;53.590;10.062;2023-11-22T05:39:21;1.70;99.90
14737;DHT22;7459;53.590;10.062;2023-11-22T05:41:50;1.60;99.90
14737;DHT22;7459;53.590;10.062;2023-11-22T05:44:16;1.60;99.90
14737;DHT22;7459;53.590;10.062;2023-11-22T05:46:42;1.70;99.90
14737;DHT22;7459;53.590;10.062;2023-11-22T05:49:08;1.70;99.90
14737;DHT22;7459;53.590;10.062;2023-11-22T05:51:35;1.70;99.90
14737;DHT22;7459;53.590;10.062;2023-11-22T05:54:02;1.70;99.90
14737;DHT22;7459;53.590;10.062;2023-11-22T05:56:29;1.70;99.90
14737;DHT22;7459;53.590;10.062;2023-11-22T05:58:55;1.70;99.90
14737;DHT22;7459;53.590;10.062;2023-11-22T06:01:20;1.70;99.90
14737;DHT22;7459;53.590;10.062;2023-11-22T06:03:46;1.70;99.90
14737;DHT22;7459;53.590;10.062;2023-11-22T06:06:12;1.70;99.90
14737;DHT22;7459;53.590;10.062;2023-11-22T06:08:39;1.60;99.90
14737;DHT22;7459;53.590;10.062;2023-11-22T06:11:05;1.60;99.90
14737;DHT22;7459;53.590;10.062;2023-11-22T06:13:31;1.70;99.90
14737;DHT22;7459;53.590;10.062;2023-11-22T06:15:57;1.70;99.90
14737;DHT22;7459;53.590;10.062;2023-11-22T06:18:22;1.70;99.90
14737;DHT22;7459;53.590;10.062;2023-11-22T06:20:55;1.70;99.90
14737;DHT22;7459;53.590;10.062;2023-11-22T06:23:21;1.70;99.90
14737;DHT22;7459;53.590;10.062;2023-11-22T06:25:47;1.70;99.90
14737;DHT22;7459;53.590;10.062;2023-11-22T06:28:13;1.70;99.90
14737;DHT22;7459;53.590;10.062;2023-11-22T06:30:38;1.80;99.90
14737;DHT22;7459;53.590;10.062;2023-11-22T06:33:04;1.70;99.90
14737;DHT22;7459;53.590;10.062;2023-11-22T06:35:30;1.70;99.90
14737;DHT22;7459;53.590;10.062;2023-11-22T06:37:55;1.70;99.90
14737;DHT22;7459;53.590;10.062;2023-11-22T06:40:21;1.80;99.90
14737;DHT22;7459;53.590;10.062;2023-11-22T06:42:47;1.80;99.90
14737;DHT22;7459;53.590;10.062;2023-11-22T06:45:12;1.80;99.90
14737;DHT22;7459;53.590;10.062;2023-11-22T06:47:42;1.80;99.90
14737;DHT22;7459;53.590;10.062;2023-11-22T06:50:11;1.80;99.90
14737;DHT22;7459;53.590;10.062;2023-11-22T06:52:41;1.80;99.90
14737;DHT22;7459;53.590;10.062;2023-11-22T06:55:08;1.70;99.90
14737;DHT22;7459;53.590;10.062;2023-11-22T06:57:35;1.80;99.90
14737;DHT22;7459;53.590;10.062;2023-11-22T07:00:01;1.80;99.90
14737;DHT22;7459;53.590;10.062;2023-11-22T07:02:33;1.80;99.90
14737;DHT22;7459;53.590;10.062;2023-11-22T07:05:00;1.80;99.90
14737;DHT22;7459;53.590;10.062;2023-11-22T07:07:27;1.80;99.90
14737;DHT22;7459;53.590;10.062;2023-11-22T07:09:52;1.90;99.90
14737;DHT22;7459;53.590;10.062;2023-11-22T07:12:18;1.90;99.90
14737;DHT22;7459;53.590;10.062;2023-11-22T07:14:47;1.90;99.90
14737;DHT22;7459;53.590;10.062;2023-11-22T07:17:15;1.90;99.90
14737;DHT22;7459;53.590;10.062;2023-11-22T07:19:42;2.20;99.90
14737;DHT22;7459;53.590;10.062;2023-11-22T07:22:13;2.50;99.90
14737;DHT22;7459;53.590;10.062;2023-11-22T07:24:43;2.90;99.90
14737;DHT22;7459;53.590;10.062;2023-11-22T07:27:10;3.00;99.90
14737;DHT22;7459;53.590;10.062;2023-11-22T07:29:39;2.90;99.90
14737;DHT22;7459;53.590;10.062;2023-11-22T07:32:06;2.90;99.90
14737;DHT22;7459;53.590;10.062;2023-11-22T07:34:38;2.70;99.90
14737;DHT22;7459;53.590;10.062;2023-11-22T07:37:06;2.70;99.90
14737;DHT22;7459;53.590;10.062;2023-11-22T07:39:35;2.60;99.90
14737;DHT22;7459;53.590;10.062;2023-11-22T07:42:02;2.60;99.90
14737;DHT22;7459;53.590;10.062;2023-11-22T07:44:28;2.50;99.90
14737;DHT22;7459;53.590;10.062;2023-11-22T07:46:58;2.50;99.90
14737;DHT22;7459;53.590;10.062;2023-11-22T07:49:24;2.50;99.90
14737;DHT22;7459;53.590;10.062;2023-11-22T07:51:50;2.50;99.90
14737;DHT22;7459;53.590;10.062;2023-11-22T07:54:20;2.40;99.90
14737;DHT22;7459;53.590;10.062;2023-11-22T07:56:49;2.50;99.90
14737;DHT22;7459;53.590;10.062;2023-11-22T07:59:14;2.50;99.90
14737;DHT22;7459;53.590;10.062;2023-11-22T08:01:44;2.50;99.90
14737;DHT22;7459;53.590;10.062;2023-11-22T08:04:10;2.50;99.90
14737;DHT22;7459;53.590;10.062;2023-11-22T08:06:36;2.50;99.90
14737;DHT22;7459;53.590;10.062;2023-11-22T08:09:02;2.50;99.90
14737;DHT22;7459;53.590;10.062;2023-11-22T08:11:29;2.60;99.90
14737;DHT22;7459;53.590;10.062;2023-11-22T08:13:55;2.60;99.90
14737;DHT22;7459;53.590;10.062;2023-11-22T08:16:28;2.60;99.90
14737;DHT22;7459;53.590;10.062;2023-11-22T08:18:53;2.60;99.90
14737;DHT22;7459;53.590;10.062;2023-11-22T08:21:19;2.60;99.90
14737;DHT22;7459;53.590;10.062;2023-11-22T08:23:48;2.60;99.90
14737;DHT22;7459;53.590;10.062;2023-11-22T08:26:14;2.60;99.90
14737;DHT22;7459;53.590;10.062;2023-11-22T08:28:40;2.60;99.90
14737;DHT22;7459;53.590;10.062;2023-11-22T08:31:06;2.60;99.90
14737;DHT22;7459;53.590;10.062;2023-11-22T08:33:35;2.60;99.90
14737;DHT22;7459;53.590;10.062;2023-11-22T08:36:02;2.60;99.90
14737;DHT22;7459;53.590;10.062;2023-11-22T08:38:30;2.60;99.90
14737;DHT22;7459;53.590;10.062;2023-11-22T08:41:02;2.60;99.90
14737;DHT22;7459;53.590;10.062;2023-11-22T08:43:28;2.60;99.90
14737;DHT22;7459;53.590;10.062;2023-11-22T08:45:54;2.60;99.90
14737;DHT22;7459;53.590;10.062;2023-11-22T08:48:20;2.60;99.90
14737;DHT22;7459;53.590;10.062;2023-11-22T08:50:46;2.70;99.90
14737;DHT22;7459;53.590;10.062;2023-11-22T08:53:13;2.70;99.90
14737;DHT22;7459;53.590;10.062;2023-11-22T08:55:39;2.70;99.90
14737;DHT22;7459;53.590;10.062;2023-11-22T08:58:04;2.70;99.90
14737;DHT22;7459;53.590;10.062;2023-11-22T09:00:30;2.70;99.90
14737;DHT22;7459;53.590;10.062;2023-11-22T09:02:57;2.70;99.90
14737;DHT22;7459;53.590;10.062;2023-11-22T09:05:23;2.80;99.90
14737;DHT22;7459;53.590;10.062;2023-11-22T09:07:50;2.80;99.90
14737;DHT22;7459;53.590;10.062;2023-11-22T09:10:17;2.90;99.90
14737;DHT22;7459;53.590;10.062;2023-11-22T09:12:44;2.90;99.90
14737;DHT22;7459;53.590;10.062;2023-11-22T09:15:11;2.90;99.90
14737;DHT22;7459;53.590;10.062;2023-11-22T09:17:38;3.00;99.90
14737;DHT22;7459;53.590;10.062;2023-11-22T09:20:10;3.00;99.90
14737;DHT22;7459;53.590;10.062;2023-11-22T09:22:44;3.10;99.90
14737;DHT22;7459;53.590;10.062;2023-11-22T09:25:14;3.10;99.90
14737;DHT22;7459;53.590;10.062;2023-11-22T09:27:42;3.20;99.90
14737;DHT22;7459;53.590;10.062;2023-11-22T09:30:12;3.20;99.90
14737;DHT22;7459;53.590;10.062;2023-11-22T09:32:45;3.20;99.90
14737;DHT22;7459;53.590;10.062;2023-11-22T09:35:13;3.30;99.90
14737;DHT22;7459;53.590;10.062;2023-11-22T09:37:40;3.30;99.90
14737;DHT22;7459;53.590;10.062;2023-11-22T09:40:10;3.30;99.90
14737;DHT22;7459;53.590;10.062;2023-11-22T09:42:37;3.30;99.90
14737;DHT22;7459;53.590;10.062;2023-11-22T09:45:03;3.30;99.90
14737;DHT22;7459;53.590;10.062;2023-11-22T09:47:32;3.40;99.90
14737;DHT22;7459;53.590;10.062;2023-11-22T09:50:01;3.40;99.90
14737;DHT22;7459;53.590;10.062;2023-11-22T09:52:33;3.40;99.90
14737;DHT22;7459;53.590;10.062;2023-11-22T09:55:00;3.50;99.90
14737;DHT22;7459;53.590;10.062;2023-11-22T09:57:29;3.50;99.90
14737;DHT22;7459;53.590;10.062;2023-11-22T09:59:57;3.60;99.90
14737;DHT22;7459;53.590;10.062;2023-11-22T10:02:24;3.50;99.90
14737;DHT22;7459;53.590;10.062;2023-11-22T10:04:54;3.60;99.90
14737;DHT22;7459;53.590;10.062;2023-11-22T10:07:19;3.60;99.90
14737;DHT22;7459;53.590;10.062;2023-11-22T10:09:45;3.60;99.90
14737;DHT22;7459;53.590;10.062;2023-11-22T10:12:19;3.60;99.90
14737;DHT22;7459;53.590;10.062;2023-11-22T10:14:47;3.60;99.90
14737;DHT22;7459;53.590;10.062;2023-11-22T10:17:13;3.60;99.90
14737;DHT22;7459;53.590;10.062;2023-11-22T10:19:41;3.60;99.90
14737;DHT22;7459;53.590;10.062;2023-11-22T10:22:08;3.60;99.90
14737;DHT22;7459;53.590;10.062;2023-11-22T10:24:35;3.60;99.90
14737;DHT22;7459;53.590;10.062;2023-11-22T10:27:01;3.70;99.90
14737;DHT22;7459;53.590;10.062;2023-11-22T10:29:28;3.70;99.90
14737;DHT22;7459;53.590;10.062;2023-11-22T10:31:54;3.70;99.90
14737;DHT22;7459;53.590;10.062;2023-11-22T10:34:24;3.70;99.90
14737;DHT22;7459;53.590;10.062;2023-11-22T10:36:49;3.70;99.90
14737;DHT22;7459;53.590;10.062;2023-11-22T10:39:19;3.70;99.90
14737;DHT22;7459;53.590;10.062;2023-11-22T10:41:45;3.80;99.90
14737;DHT22;7459;53.590;10.062;2023-11-22T10:44:11;3.80;99.90
14737;DHT22;7459;53.590;10.062;2023-11-22T10:46:39;3.80;99.90
14737;DHT22;7459;53.590;10.062;2023-11-22T10:49:05;3.80;99.90
14737;DHT22;7459;53.590;10.062;2023-11-22T10:51:32;3.90;99.90
14737;DHT22;7459;53.590;10.062;2023-11-22T10:54:00;3.90;99.90
14737;DHT22;7459;53.590;10.062;2023-11-22T10:56:27;3.90;99.90
14737;DHT22;7459;53.590;10.062;2023-11-22T10:58:57;3.90;99.90
14737;DHT22;7459;53.590;10.062;2023-11-22T11:01:26;3.90;99.90
14737;DHT22;7459;53.590;10.062;2023-11-22T11:04:16;3.90;99.90
14737;DHT22;7459;53.590;10.062;2023-11-22T11:06:53;3.90;99.90
14737;DHT22;7459;53.590;10.062;2023-11-22T11:09:22;3.90;99.90
14737;DHT22;7459;53.590;10.062;2023-11-22T11:11:51;4.00;99.90
14737;DHT22;7459;53.590;10.062;2023-11-22T11:14:17;4.00;99.90
14737;DHT22;7459;53.590;10.062;2023-11-22T11:16:45;4.00;99.90
14737;DHT22;7459;53.590;10.062;2023-11-22T11:19:15;4.00;99.90
14737;DHT22;7459;53.590;10.062;2023-11-22T11:21:43;4.10;99.90
14737;DHT22;7459;53.590;10.062;2023-11-22T11:24:08;4.10;99.90
14737;DHT22;7459;53.590;10.062;2023-11-22T11:26:34;4.10;99.90
14737;DHT22;7459;53.590;10.062;2023-11-22T11:29:00;4.10;99.90
14737;DHT22;7459;53.590;10.062;2023-11-22T11:31:32;4.10;99.90
14737;DHT22;7459;53.590;10.062;2023-11-22T11:34:05;4.10;99.90
14737;DHT22;7459;53.590;10.062;2023-11-22T11:36:32;4.10;99.90
14737;DHT22;7459;53.590;10.062;2023-11-22T11:39:00;4.10;99.90
14737;DHT22;7459;53.590;10.062;2023-11-22T11:41:31;4.20;99.90
14737;DHT22;7459;53.590;10.062;2023-11-22T11:44:03;4.20;99.90
14737;DHT22;7459;53.590;10.062;2023-11-22T11:46:30;4.20;99.90
14737;DHT22;7459;53.590;10.062;2023-11-22T11:48:56;4.20;99.90
14737;DHT22;7459;53.590;10.062;2023-11-22T11:51:27;4.20;99.90
14737;DHT22;7459;53.590;10.062;2023-11-22T11:53:54;4.20;99.90
14737;DHT22;7459;53.590;10.062;2023-11-22T11:56:20;4.20;99.90
14737;DHT22;7459;53.590;10.062;2023-11-22T11:58:47;4.20;99.90
14737;DHT22;7459;53.590;10.062;2023-11-22T12:01:17;4.20;99.90
14737;DHT22;7459;53.590;10.062;2023-11-22T12:03:47;4.20;99.90
14737;DHT22;7459;53.590;10.062;2023-11-22T12:06:17;4.20;99.90
14737;DHT22;7459;53.590;10.062;2023-11-22T12:08:44;4.20;99.90
14737;DHT22;7459;53.590;10.062;2023-11-22T12:11:10;4.20;99.90
14737;DHT22;7459;53.590;10.062;2023-11-22T12:13:37;4.20;99.90
14737;DHT22;7459;53.590;10.062;2023-11-22T12:16:14;4.20;99.90
14737;DHT22;7459;53.590;10.062;2023-11-22T12:18:41;4.20;99.90
14737;DHT22;7459;53.590;10.062;2023-11-22T12:21:08;4.30;99.90
14737;DHT22;7459;53.590;10.062;2023-11-22T12:23:38;4.20;99.90
14737;DHT22;7459;53.590;10.062;2023-11-22T12:26:09;4.20;99.90
14737;DHT22;7459;53.590;10.062;2023-11-22T12:28:36;4.30;99.90
14737;DHT22;7459;53.590;10.062;2023-11-22T12:31:09;4.20;99.90
14737;DHT22;7459;53.590;10.062;2023-11-22T12:33:36;4.20;99.90
14737;DHT22;7459;53.590;10.062;2023-11-22T12:36:03;4.20;99.90
14737;DHT22;7459;53.590;10.062;2023-11-22T12:38:29;4.10;99.90
14737;DHT22;7459;53.590;10.062;2023-11-22T12:40:58;4.20;99.90
14737;DHT22;7459;53.590;10.062;2023-11-22T12:43:25;4.20;99.90
14737;DHT22;7459;53.590;10.062;2023-11-22T12:46:07;4.10;99.90
14737;DHT22;7459;53.590;10.062;2023-11-22T12:48:33;4.10;99.90
14737;DHT22;7459;53.590;10.062;2023-11-22T12:50:59;4.20;99.90
14737;DHT22;7459;53.590;10.062;2023-11-22T12:53:26;4.10;99.90
14737;DHT22;7459;53.590;10.062;2023-11-22T12:55:55;4.10;99.90
14737;DHT22;7459;53.590;10.062;2023-11-22T12:58:23;4.10;99.90
14737;DHT22;7459;53.590;10.062;2023-11-22T13:00:51;4.10;99.90
14737;DHT22;7459;53.590;10.062;2023-11-22T13:03:26;4.10;99.90
14737;DHT22;7459;53.590;10.062;2023-11-22T13:05:52;4.10;99.90
14737;DHT22;7459;53.590;10.062;2023-11-22T13:08:18;4.10;99.90
14737;DHT22;7459;53.590;10.062;2023-11-22T13:10:49;4.10;99.90
14737;DHT22;7459;53.590;10.062;2023-11-22T13:13:25;4.00;99.90
14737;DHT22;7459;53.590;10.062;2023-11-22T13:15:52;4.00;99.90
14737;DHT22;7459;53.590;10.062;2023-11-22T13:18:19;4.00;99.90
14737;DHT22;7459;53.590;10.062;2023-11-22T13:20:45;4.00;99.90
14737;DHT22;7459;53.590;10.062;2023-11-22T13:23:11;4.00;99.90
14737;DHT22;7459;53.590;10.062;2023-11-22T13:25:37;4.00;99.90
14737;DHT22;7459;53.590;10.062;2023-11-22T13:28:04;4.00;99.90
14737;DHT22;7459;53.590;10.062;2023-11-22T13:30:31;4.00;99.90
14737;DHT22;7459;53.590;10.062;2023-11-22T13:32:57;4.00;99.90
14737;DHT22;7459;53.590;10.062;2023-11-22T13:35:23;4.00;99.90
14737;DHT22;7459;53.590;10.062;2023-11-22T13:37:49;3.90;99.90
14737;DHT22;7459;53.590;10.062;2023-11-22T13:40:17;3.90;99.90
14737;DHT22;7459;53.590;10.062;2023-11-22T13:42:48;3.90;99.90
14737;DHT22;7459;53.590;10.062;2023-11-22T13:45:16;3.90;99.90
14737;DHT22;7459;53.590;10.062;2023-11-22T13:47:47;3.90;99.90
14737;DHT22;7459;53.590;10.062;2023-11-22T13:50:14;3.90;99.90
14737;DHT22;7459;53.590;10.062;2023-11-22T13:52:46;3.90;99.90
14737;DHT22;7459;53.590;10.062;2023-11-22T13:55:16;3.90;99.90
14737;DHT22;7459;53.590;10.062;2023-11-22T13:57:47;3.90;99.90
14737;DHT22;7459;53.590;10.062;2023-11-22T14:00:17;3.90;99.90
14737;DHT22;7459;53.590;10.062;2023-11-22T14:02:48;3.90;99.90
14737;DHT22;7459;53.590;10.062;2023-11-22T14:05:17;4.00;99.90
14737;DHT22;7459;53.590;10.062;2023-11-22T14:07:43;3.90;99.90
14737;DHT22;7459;53.590;10.062;2023-11-22T14:10:11;3.90;99.90
14737;DHT22;7459;53.590;10.062;2023-11-22T14:12:41;3.90;99.90
14737;DHT22;7459;53.590;10.062;2023-11-22T14:15:08;4.00;99.90
14737;DHT22;7459;53.590;10.062;2023-11-22T14:17:35;3.90;99.90
14737;DHT22;7459;53.590;10.062;2023-11-22T14:20:01;3.90;99.90
14737;DHT22;7459;53.590;10.062;2023-11-22T14:22:26;4.00;99.90
14737;DHT22;7459;53.590;10.062;2023-11-22T14:24:53;4.00;99.90
14737;DHT22;7459;53.590;10.062;2023-11-22T14:27:19;3.90;99.90
14737;DHT22;7459;53.590;10.062;2023-11-22T14:29:45;3.90;99.90
14737;DHT22;7459;53.590;10.062;2023-11-22T14:32:14;3.90;99.90
14737;DHT22;7459;53.590;10.062;2023-11-22T14:34:40;3.90;99.90
14737;DHT22;7459;53.590;10.062;2023-11-22T14:37:09;3.90;99.90
14737;DHT22;7459;53.590;10.062;2023-11-22T14:39:35;3.80;99.90
14737;DHT22;7459;53.590;10.062;2023-11-22T14:42:01;3.80;99.90
14737;DHT22;7459;53.590;10.062;2023-11-22T14:44:27;3.80;99.90
14737;DHT22;7459;53.590;10.062;2023-11-22T14:46:52;3.80;99.90
14737;DHT22;7459;53.590;10.062;2023-11-22T14:49:19;3.80;99.90
14737;DHT22;7459;53.590;10.062;2023-11-22T14:51:46;3.80;99.90
14737;DHT22;7459;53.590;10.062;2023-11-22T14:54:12;3.80;99.90
14737;DHT22;7459;53.590;10.062;2023-11-22T14:56:37;3.80;99.90
14737;DHT22;7459;53.590;10.062;2023-11-22T14:59:05;3.80;99.90
14737;DHT22;7459;53.590;10.062;2023-11-22T15:01:31;3.80;99.90
14737;DHT22;7459;53.590;10.062;2023-11-22T15:03:57;3.80;99.90
14737;DHT22;7459;53.590;10.062;2023-11-22T15:06:23;3.80;99.90
14737;DHT22;7459;53.590;10.062;2023-11-22T15:08:48;3.80;99.90
14737;DHT22;7459;53.590;10.062;2023-11-22T15:11:16;3.80;99.90
14737;DHT22;7459;53.590;10.062;2023-11-22T15:13:45;3.80;99.90
14737;DHT22;7459;53.590;10.062;2023-11-22T15:16:10;3.80;99.90
14737;DHT22;7459;53.590;10.062;2023-11-22T15:18:41;3.80;99.90
14737;DHT22;7459;53.590;10.062;2023-11-22T15:21:07;3.80;99.90
14737;DHT22;7459;53.590;10.062;2023-11-22T15:23:33;3.70;99.90
14737;DHT22;7459;53.590;10.062;2023-11-22T15:25:59;3.70;99.90
14737;DHT22;7459;53.590;10.062;2023-11-22T15:28:25;3.70;99.90
14737;DHT22;7459;53.590;10.062;2023-11-22T15:30:51;3.70;99.90
14737;DHT22;7459;53.590;10.062;2023-11-22T15:33:24;3.70;99.90
14737;DHT22;7459;53.590;10.062;2023-11-22T15:35:49;3.70;99.90
14737;DHT22;7459;53.590;10.062;2023-11-22T15:38:15;3.70;99.90
14737;DHT22;7459;53.590;10.062;2023-11-22T15:40:41;3.70;99.90
14737;DHT22;7459;53.590;10.062;2023-11-22T15:43:08;3.70;99.90
14737;DHT22;7459;53.590;10.062;2023-11-22T15:45:34;3.60;99.90
14737;DHT22;7459;53.590;10.062;2023-11-22T15:48:08;3.60;99.90